Hewins, Kansas
Current Conditions -  °F | °C
As of 1:55 AM on Thursday 23 Oct 2014 (Local Time) from KIDP Reporting Station
Drizzle Drizzle  
Wind Chill: 61°   Ceiling: 9500
Heat Index: 61°   Visibility: 7mi
Dew Point: 59°   Wind: 8mph
Humidity: 94%   Direction: 200°SSW
Pressure: 30.12"   Gusts: NA
Location:  37.1672°N, 96.399°W
Report Text: KIDP 230655Z AUTO 20007KT 7SM -DZ SCT050 SCT060 OVC095 16/15 A3012 RMK AO2
Loading
Personal Weather Stations






























Interactive Weather Map
Tropical Storm Tracking
New forecast layout! Learn more

10-Day Weather Forecast

Advertisements
Track Severe Weather on mobile